createdAt,value
2023-05-22T00:00:55.074Z,14.70
2023-05-22T00:03:25.342Z,14.70
2023-05-22T00:05:58.780Z,14.70
2023-05-22T00:08:29.434Z,14.60
2023-05-22T00:10:58.381Z,14.60
2023-05-22T00:13:26.692Z,14.60
2023-05-22T00:15:55.100Z,14.60
2023-05-22T00:18:26.988Z,14.60
2023-05-22T00:20:55.956Z,14.60
2023-05-22T00:23:24.539Z,14.60
2023-05-22T00:25:53.134Z,14.60
2023-05-22T00:28:21.694Z,14.50
2023-05-22T00:30:50.170Z,14.50
2023-05-22T00:33:18.444Z,14.50
2023-05-22T00:35:48.891Z,14.50
2023-05-22T00:38:30.046Z,14.50
2023-05-22T00:40:58.574Z,14.50
2023-05-22T00:43:28.185Z,14.40
2023-05-22T00:45:56.808Z,14.40
2023-05-22T00:48:25.658Z,14.30
2023-05-22T00:50:59.480Z,14.30
2023-05-22T00:53:29.843Z,14.30
2023-05-22T00:55:59.958Z,14.30
2023-05-22T00:58:28.812Z,14.30
2023-05-22T01:00:58.004Z,14.30
2023-05-22T01:03:28.290Z,14.20
2023-05-22T01:05:58.620Z,14.20
2023-05-22T01:08:27.012Z,14.10
2023-05-22T01:14:07.675Z,14.00
2023-05-22T01:16:44.439Z,14.00
2023-05-22T01:19:25.901Z,14.00
2023-05-22T01:22:08.854Z,13.90
2023-05-22T01:25:01.488Z,13.90
2023-05-22T01:27:43.866Z,13.90
2023-05-22T01:30:28.632Z,13.90
2023-05-22T01:32:59.292Z,13.80
2023-05-22T01:35:28.713Z,13.80
2023-05-22T01:37:58.484Z,13.70
2023-05-22T01:40:27.689Z,13.70
2023-05-22T01:42:56.458Z,13.70
2023-05-22T01:45:25.363Z,13.70
2023-05-22T01:47:53.833Z,13.60
2023-05-22T01:50:23.726Z,13.60
2023-05-22T01:53:00.863Z,13.60
2023-05-22T01:55:55.961Z,13.60
2023-05-22T01:58:30.656Z,13.60
2023-05-22T02:01:01.328Z,13.60
2023-05-22T02:03:33.009Z,13.60
2023-05-22T02:06:07.331Z,13.60
2023-05-22T02:08:38.550Z,13.50
2023-05-22T02:11:08.376Z,13.60
2023-05-22T02:13:37.228Z,13.50
2023-05-22T02:16:08.183Z,13.50
2023-05-22T02:18:36.676Z,13.50
2023-05-22T02:21:08.498Z,13.50
2023-05-22T02:23:37.874Z,13.40
2023-05-22T02:26:06.685Z,13.50
2023-05-22T02:28:35.154Z,13.40
2023-05-22T02:31:04.070Z,13.40
2023-05-22T02:33:32.568Z,13.40
2023-05-22T02:36:01.500Z,13.40
2023-05-22T02:38:32.612Z,13.30
2023-05-22T02:41:00.924Z,13.30
2023-05-22T02:43:29.630Z,13.30
2023-05-22T02:45:58.083Z,13.30
2023-05-22T02:48:29.098Z,13.20
2023-05-22T02:50:57.473Z,13.20
2023-05-22T02:53:27.909Z,13.20
2023-05-22T02:55:58.847Z,13.20
2023-05-22T02:58:28.763Z,13.20
2023-05-22T03:00:57.685Z,13.10
2023-05-22T03:03:26.226Z,13.10
2023-05-22T03:05:58.156Z,13.10
2023-05-22T03:08:28.556Z,13.10
2023-05-22T03:10:59.247Z,13.10
2023-05-22T03:13:30.691Z,13.10
2023-05-22T03:15:59.822Z,13.10
2023-05-22T03:18:29.573Z,13.20
2023-05-22T03:20:58.092Z,13.10
2023-05-22T03:23:26.665Z,13.10
2023-05-22T03:25:55.501Z,13.10
2023-05-22T03:28:33.939Z,13.10
2023-05-22T03:31:03.016Z,13.00
2023-05-22T03:33:40.071Z,13.00
2023-05-22T03:36:10.058Z,13.00
2023-05-22T03:38:39.357Z,13.00
2023-05-22T03:41:08.840Z,12.90
2023-05-22T03:43:39.077Z,12.90
2023-05-22T03:49:31.029Z,12.90
2023-05-22T03:51:59.827Z,13.00
2023-05-22T03:54:28.455Z,13.00
2023-05-22T03:56:58.194Z,12.90
2023-05-22T03:59:28.466Z,13.00
2023-05-22T04:02:01.743Z,12.90
2023-05-22T04:04:32.416Z,12.90
2023-05-22T04:07:02.720Z,12.90
2023-05-22T04:09:34.300Z,12.90
2023-05-22T04:12:05.814Z,12.90
2023-05-22T04:14:36.024Z,13.00
2023-05-22T04:17:07.141Z,12.90
2023-05-22T04:19:37.547Z,13.00
2023-05-22T04:22:07.109Z,13.00
2023-05-22T04:24:35.921Z,13.00
2023-05-22T04:27:05.125Z,13.00
2023-05-22T04:29:37.330Z,13.00
2023-05-22T04:32:06.371Z,13.10
2023-05-22T05:30:42.479Z,14.00
2023-05-22T05:33:18.032Z,14.20
2023-05-22T05:36:03.573Z,14.30
2023-05-22T05:38:33.664Z,14.50
2023-05-22T05:41:02.336Z,14.70
2023-05-22T05:43:31.713Z,15.00
2023-05-22T05:46:07.631Z,15.20
2023-05-22T05:48:37.074Z,15.40
2023-05-22T05:51:07.244Z,15.50
2023-05-22T05:53:40.946Z,15.80
2023-05-22T05:56:10.352Z,16.00
2023-05-22T05:58:40.375Z,16.30
2023-05-22T06:01:33.014Z,16.60
2023-05-22T06:04:03.425Z,17.00
2023-05-22T06:06:37.587Z,17.30
2023-05-22T06:09:26.071Z,17.60
2023-05-22T06:12:15.190Z,17.80
2023-05-22T06:15:34.420Z,17.80
2023-05-22T06:18:06.364Z,17.90
2023-05-22T06:20:41.414Z,18.20
2023-05-22T06:23:11.015Z,18.50
2023-05-22T06:25:40.343Z,18.70
2023-05-22T06:28:08.925Z,19.00
2023-05-22T06:30:40.547Z,19.20
2023-05-22T06:33:17.863Z,19.40
2023-05-22T06:35:47.626Z,19.50
2023-05-22T06:38:17.221Z,19.50
2023-05-22T06:40:47.100Z,19.60
2023-05-22T06:43:20.476Z,19.80
2023-05-22T06:45:56.617Z,19.90
2023-05-22T06:48:26.476Z,20.00
2023-05-22T06:51:04.516Z,20.10
2023-05-22T06:53:33.784Z,20.30
2023-05-22T06:56:02.465Z,20.50
2023-05-22T06:58:44.775Z,20.60
2023-05-22T07:01:13.451Z,20.80
2023-05-22T07:03:51.464Z,20.80
2023-05-22T07:06:42.201Z,20.90
2023-05-22T07:09:12.653Z,21.10
2023-05-22T07:11:42.848Z,21.30
2023-05-22T07:14:12.475Z,21.40
2023-05-22T07:16:42.770Z,21.50
2023-05-22T07:19:12.858Z,21.60
2023-05-22T07:21:41.764Z,21.80
2023-05-22T07:24:12.566Z,21.90
2023-05-22T07:26:46.453Z,22.00
2023-05-22T07:29:15.987Z,22.10
2023-05-22T07:31:47.848Z,22.20
2023-05-22T07:34:18.411Z,22.40
2023-05-22T07:36:47.373Z,22.60
2023-05-22T07:39:15.948Z,22.90
2023-05-22T07:41:51.033Z,23.00
2023-05-22T07:44:21.706Z,23.30
2023-05-22T07:46:51.838Z,23.50
2023-05-22T07:49:25.862Z,23.70
2023-05-22T07:51:54.386Z,24.00
2023-05-22T07:54:25.864Z,24.20
2023-05-22T07:56:56.038Z,24.40
2023-05-22T07:59:28.643Z,24.50
2023-05-22T08:02:00.939Z,24.60
2023-05-22T08:04:32.233Z,24.80
2023-05-22T08:07:01.554Z,24.90
2023-05-22T08:09:30.179Z,25.10
2023-05-22T08:11:58.572Z,25.30
2023-05-22T08:14:27.134Z,25.50
2023-05-22T08:16:56.972Z,25.50
2023-05-22T08:19:25.597Z,25.50
2023-05-22T08:21:58.043Z,25.40
2023-05-22T08:24:28.576Z,25.30
2023-05-22T08:26:58.134Z,25.20
2023-05-22T08:29:26.888Z,25.30
2023-05-22T08:31:56.870Z,25.40
2023-05-22T08:34:25.645Z,25.50
2023-05-22T08:36:55.512Z,25.50
2023-05-22T08:39:24.046Z,25.60
2023-05-22T08:41:53.135Z,25.70
2023-05-22T08:44:22.021Z,25.90
2023-05-22T08:46:53.460Z,26.00
2023-05-22T08:49:24.146Z,26.10
2023-05-22T08:51:59.193Z,26.10
2023-05-22T08:54:29.571Z,26.10
2023-05-22T08:56:58.869Z,26.20
2023-05-22T08:59:28.661Z,26.20
2023-05-22T09:01:58.846Z,26.20
2023-05-22T09:04:28.552Z,26.10
2023-05-22T09:07:05.558Z,26.10
2023-05-22T09:09:38.127Z,26.40
2023-05-22T09:12:10.166Z,26.50
2023-05-22T09:14:42.520Z,26.60
2023-05-22T09:17:12.798Z,26.70
2023-05-22T09:19:45.580Z,27.00
2023-05-22T09:22:16.769Z,27.20
2023-05-22T09:24:47.069Z,27.10
2023-05-22T09:27:15.690Z,27.20
2023-05-22T09:29:50.905Z,27.40
2023-05-22T09:32:19.573Z,27.40
2023-05-22T09:34:48.472Z,27.30
2023-05-22T09:37:18.787Z,27.40
2023-05-22T09:39:48.143Z,27.70
2023-05-22T09:42:17.724Z,27.80
2023-05-22T09:44:50.313Z,28.00
2023-05-22T09:47:19.708Z,28.10
2023-05-22T09:49:48.318Z,28.40
2023-05-22T09:52:19.183Z,28.80
2023-05-22T09:54:55.236Z,29.20
2023-05-22T09:57:26.266Z,29.30
2023-05-22T09:59:58.225Z,29.50
2023-05-22T10:02:28.000Z,29.70
2023-05-22T10:04:57.254Z,30.00
2023-05-22T10:07:37.440Z,30.20
2023-05-22T10:10:08.722Z,30.30
2023-05-22T10:12:42.912Z,30.30
2023-05-22T10:15:13.173Z,30.20
2023-05-22T10:17:42.516Z,30.30
2023-05-22T10:20:13.170Z,30.60
2023-05-22T10:22:43.595Z,30.90
2023-05-22T10:25:12.438Z,31.30
2023-05-22T10:27:41.818Z,31.50
2023-05-22T10:30:21.832Z,31.60
2023-05-22T10:33:16.638Z,31.30
2023-05-22T10:35:51.088Z,31.00
2023-05-22T10:38:41.606Z,30.90
2023-05-22T10:41:11.404Z,30.70
2023-05-22T10:43:42.160Z,30.40
2023-05-22T10:46:13.078Z,30.20
2023-05-22T10:48:46.475Z,29.90
2023-05-22T10:51:15.523Z,29.70
2023-05-22T10:53:46.323Z,29.50
2023-05-22T10:56:16.760Z,29.30
2023-05-22T10:58:56.580Z,29.10
2023-05-22T11:01:27.318Z,28.60
2023-05-22T11:04:11.601Z,27.80
2023-05-22T11:06:45.754Z,27.20
2023-05-22T11:09:28.982Z,26.90
2023-05-22T11:12:25.851Z,26.70
2023-05-22T11:14:56.196Z,26.80
2023-05-22T11:17:25.987Z,26.70
2023-05-22T11:20:04.826Z,26.50
2023-05-22T11:22:37.274Z,26.40
2023-05-22T11:25:10.732Z,26.40
2023-05-22T11:27:41.611Z,26.50
2023-05-22T11:30:13.315Z,26.90
2023-05-22T11:32:45.226Z,27.20
2023-05-22T11:35:17.088Z,27.50
2023-05-22T11:37:45.946Z,27.60
2023-05-22T11:40:17.347Z,27.70
2023-05-22T11:42:46.484Z,27.90
2023-05-22T11:45:16.163Z,28.10
2023-05-22T11:47:45.563Z,28.30
2023-05-22T11:50:17.964Z,28.50
2023-05-22T11:52:54.547Z,28.70
2023-05-22T11:55:24.411Z,29.00
2023-05-22T11:57:52.734Z,29.20
2023-05-22T12:00:21.953Z,29.40
2023-05-22T12:02:50.462Z,29.70
2023-05-22T12:05:22.207Z,30.00
2023-05-22T12:07:50.781Z,30.30
2023-05-22T12:10:19.255Z,30.60
2023-05-22T12:12:49.038Z,30.90
2023-05-22T12:15:21.102Z,31.20
2023-05-22T12:17:49.651Z,31.50
2023-05-22T12:20:17.931Z,31.50
2023-05-22T12:22:46.912Z,31.70
2023-05-22T12:25:17.074Z,32.10
2023-05-22T12:27:46.335Z,32.40
2023-05-22T12:30:16.826Z,32.40
2023-05-22T12:32:49.835Z,32.40
2023-05-22T12:35:18.612Z,32.60
2023-05-22T12:37:51.144Z,32.80
2023-05-22T12:40:19.767Z,33.00
2023-05-22T12:42:49.429Z,32.90
2023-05-22T12:45:21.298Z,32.80
2023-05-22T12:47:49.860Z,32.50
2023-05-22T12:50:18.231Z,32.30
2023-05-22T12:52:46.634Z,32.00
2023-05-22T12:55:14.961Z,31.70
2023-05-22T12:57:43.338Z,31.50
2023-05-22T13:00:12.986Z,31.10
2023-05-22T13:02:43.062Z,31.00
2023-05-22T13:05:15.180Z,31.20
2023-05-22T13:07:43.593Z,31.60
2023-05-22T13:10:13.265Z,32.20
2023-05-22T13:12:42.068Z,32.50
2023-05-22T13:15:12.812Z,32.50
2023-05-22T13:17:42.743Z,32.60
2023-05-22T13:20:12.376Z,32.80
2023-05-22T13:22:41.653Z,32.90
2023-05-22T13:26:05.936Z,32.80
2023-05-22T13:28:41.839Z,33.00
2023-05-22T13:31:10.447Z,33.30
2023-05-22T13:33:40.769Z,33.40
2023-05-22T13:36:20.099Z,33.30
2023-05-22T13:38:48.758Z,33.10
2023-05-22T13:41:17.726Z,32.90
2023-05-22T13:43:46.428Z,32.80
2023-05-22T13:46:15.035Z,32.80
2023-05-22T13:48:45.196Z,32.80
2023-05-22T13:51:14.238Z,32.50
2023-05-22T13:53:45.356Z,32.60
2023-05-22T13:56:34.988Z,32.40
2023-05-22T13:59:09.294Z,32.00
2023-05-22T14:01:38.090Z,31.40
2023-05-22T14:04:08.186Z,31.30
2023-05-22T14:06:36.662Z,31.30
2023-05-22T14:09:07.060Z,31.50
2023-05-22T14:11:35.617Z,31.80
2023-05-22T14:14:04.081Z,32.00
2023-05-22T14:16:32.680Z,32.30
2023-05-22T14:19:01.576Z,32.00
2023-05-22T14:21:32.084Z,31.60
2023-05-22T14:27:41.144Z,30.20
2023-05-22T14:30:13.707Z,29.30
2023-05-22T14:32:43.123Z,28.80
2023-05-22T14:35:12.720Z,28.40
2023-05-22T14:37:42.605Z,28.10
2023-05-22T14:40:11.866Z,27.80
2023-05-22T14:42:40.724Z,27.50
2023-05-22T14:59:58.027Z,26.20
2023-05-22T15:02:26.743Z,25.90
2023-05-22T15:04:55.513Z,25.70
2023-05-22T15:07:29.264Z,25.30
2023-05-22T15:10:11.204Z,24.90
2023-05-22T15:12:40.063Z,24.30
2023-05-22T15:15:09.499Z,23.90
2023-05-22T15:17:40.811Z,23.50
2023-05-22T15:20:16.764Z,23.10
2023-05-22T15:23:41.595Z,22.80
2023-05-22T15:26:12.590Z,22.50
2023-05-22T15:28:42.326Z,22.30
2023-05-22T15:31:14.497Z,22.10
2023-05-22T15:33:43.871Z,21.90
2023-05-22T15:36:13.246Z,21.70
2023-05-22T15:38:42.880Z,21.50
2023-05-22T15:41:13.587Z,21.30
2023-05-22T15:43:48.212Z,21.20
2023-05-22T15:46:18.059Z,21.00
2023-05-22T15:48:47.690Z,20.80
2023-05-22T15:51:19.752Z,20.80
2023-05-22T15:53:51.169Z,20.70
2023-05-22T15:56:28.570Z,20.60
2023-05-22T15:59:01.198Z,20.50
2023-05-22T16:01:41.312Z,20.40
2023-05-22T16:04:16.237Z,20.20
2023-05-22T16:06:47.655Z,20.10
2023-05-22T16:09:20.215Z,20.10
2023-05-22T16:11:51.401Z,20.10
2023-05-22T16:14:28.758Z,20.10
2023-05-22T16:16:58.956Z,20.10
2023-05-22T16:19:28.682Z,20.00
2023-05-22T16:21:58.374Z,19.90
2023-05-22T16:24:31.583Z,19.70
2023-05-22T16:27:02.928Z,19.50
2023-05-22T16:29:44.515Z,19.40
2023-05-22T16:32:22.464Z,19.50
2023-05-22T16:34:56.675Z,19.50
2023-05-22T16:37:28.880Z,19.50
2023-05-22T16:40:52.523Z,19.50
2023-05-22T16:43:57.833Z,19.30
2023-05-22T16:46:34.922Z,19.10
2023-05-22T16:49:06.472Z,18.90
2023-05-22T16:51:43.357Z,18.60
2023-05-22T16:54:14.069Z,18.40
2023-05-22T16:56:43.613Z,18.20
2023-05-22T16:59:14.974Z,18.10
2023-05-22T17:01:53.549Z,17.90
2023-05-22T17:04:24.911Z,17.90
2023-05-22T17:06:56.971Z,17.80
2023-05-22T17:09:28.647Z,17.80
2023-05-22T17:11:59.128Z,17.80
2023-05-22T17:15:34.704Z,17.70
2023-05-22T17:22:13.498Z,17.60
2023-05-22T17:24:41.803Z,17.70
2023-05-22T17:27:11.446Z,17.70
2023-05-22T17:29:41.062Z,17.80
2023-05-22T17:32:09.556Z,18.00
2023-05-22T17:34:37.892Z,18.10
2023-05-22T17:37:06.622Z,18.10
2023-05-22T17:39:35.285Z,18.10
2023-05-22T17:42:03.907Z,18.10
2023-05-22T17:44:32.249Z,18.10
2023-05-22T17:47:02.114Z,18.10
2023-05-22T17:49:30.623Z,18.10
2023-05-22T17:51:59.057Z,18.10
2023-05-22T17:54:27.328Z,18.10
2023-05-22T17:56:55.873Z,18.10
2023-05-22T17:59:24.167Z,18.10
2023-05-22T18:01:52.670Z,18.00
2023-05-22T18:04:22.354Z,17.90
2023-05-22T18:06:50.840Z,18.00
2023-05-22T18:09:19.300Z,17.90
2023-05-22T18:11:47.818Z,17.80
2023-05-22T18:14:16.169Z,17.80
2023-05-22T18:16:45.055Z,17.80
2023-05-22T18:19:13.843Z,17.80
2023-05-22T18:21:43.796Z,17.80
2023-05-22T18:24:14.653Z,17.80
2023-05-22T18:26:43.084Z,17.70
2023-05-22T18:29:11.599Z,17.70
2023-05-22T18:31:40.108Z,17.70
2023-05-22T18:34:08.468Z,17.70
2023-05-22T18:36:37.343Z,17.70
2023-05-22T18:39:07.702Z,17.80
2023-05-22T18:41:37.611Z,17.80
2023-05-22T18:44:07.509Z,17.90
2023-05-22T18:46:36.035Z,17.90
2023-05-22T18:49:05.384Z,17.90
2023-05-22T18:51:33.872Z,17.90
2023-05-22T18:54:02.176Z,17.90
2023-05-22T18:56:32.828Z,17.80
2023-05-22T18:59:01.231Z,17.80
2023-05-22T19:01:32.323Z,17.70
2023-05-22T19:04:01.323Z,17.60
2023-05-22T19:06:30.418Z,17.50
2023-05-22T19:08:58.793Z,17.40
2023-05-22T19:11:27.309Z,17.30
2023-05-22T19:13:57.057Z,17.20
2023-05-22T19:16:25.769Z,17.10
2023-05-22T19:18:54.233Z,17.10
2023-05-22T19:21:23.451Z,17.00
2023-05-22T19:23:51.816Z,16.90
2023-05-22T19:26:21.006Z,16.90
2023-05-22T19:28:49.530Z,16.80
2023-05-22T19:31:19.158Z,16.70
2023-05-22T19:33:47.636Z,16.70
2023-05-22T19:36:16.030Z,16.60
2023-05-22T19:38:44.404Z,16.60
2023-05-22T19:41:12.757Z,16.60
2023-05-22T19:43:41.192Z,16.50
2023-05-22T19:46:09.541Z,16.50
2023-05-22T19:48:39.431Z,16.40
2023-05-22T19:51:08.670Z,16.40
2023-05-22T19:53:37.925Z,16.30
2023-05-22T19:56:08.139Z,16.40
2023-05-22T19:58:36.580Z,16.30
2023-05-22T20:01:04.983Z,16.30
2023-05-22T20:03:50.235Z,16.30
2023-05-22T20:06:19.055Z,16.30
2023-05-22T20:08:47.524Z,16.40
2023-05-22T20:11:19.054Z,16.40
2023-05-22T20:13:47.421Z,16.40
2023-05-22T20:16:16.340Z,16.50
2023-05-22T20:18:44.992Z,16.60
2023-05-22T20:21:16.285Z,16.70
2023-05-22T20:23:44.963Z,16.80
2023-05-22T20:26:13.306Z,16.80
2023-05-22T20:28:41.694Z,16.90
2023-05-22T20:31:10.303Z,16.90
2023-05-22T20:33:38.637Z,17.00
2023-05-22T20:36:07.510Z,17.00
2023-05-22T20:38:37.240Z,17.10
2023-05-22T20:41:09.184Z,17.10
2023-05-22T20:43:39.260Z,17.10
2023-05-22T20:46:07.842Z,17.10
2023-05-22T20:48:36.224Z,17.20
2023-05-22T20:51:06.037Z,17.20
2023-05-22T20:53:34.488Z,17.30
2023-05-22T20:56:04.905Z,17.40
2023-05-22T20:58:33.566Z,17.40
2023-05-22T21:01:02.322Z,17.40
2023-05-22T21:03:31.724Z,17.40
2023-05-22T21:06:00.861Z,17.40
2023-05-22T21:08:31.252Z,17.40
2023-05-22T21:10:59.949Z,17.40
2023-05-22T21:13:29.742Z,17.40
2023-05-22T21:15:57.969Z,17.40
2023-05-22T21:18:26.354Z,17.40
2023-05-22T21:20:54.610Z,17.40
2023-05-22T21:23:24.620Z,17.40
2023-05-22T21:25:53.109Z,17.50
2023-05-22T21:28:21.656Z,17.50
2023-05-22T21:30:51.108Z,17.50
2023-05-22T21:33:19.481Z,17.50
2023-05-22T21:35:47.712Z,17.60
2023-05-22T21:38:16.117Z,17.60
2023-05-22T21:40:44.353Z,17.60
2023-05-22T21:43:12.750Z,17.60
2023-05-22T21:45:41.010Z,17.70
2023-05-22T21:48:11.332Z,17.70
2023-05-22T21:50:39.791Z,17.70
2023-05-22T21:53:08.355Z,17.70
2023-05-22T21:55:36.888Z,17.80
2023-05-22T21:58:25.257Z,17.70
2023-05-22T22:00:53.534Z,17.70
2023-05-22T22:03:23.343Z,17.70
2023-05-22T22:05:51.745Z,17.70
2023-05-22T22:08:20.117Z,17.70
2023-05-22T22:10:48.341Z,17.70
2023-05-22T22:13:16.649Z,17.70
2023-05-22T22:15:45.126Z,17.80
2023-05-22T22:18:14.929Z,17.80
2023-05-22T22:20:45.623Z,17.90
2023-05-22T22:23:14.861Z,17.90
2023-05-22T22:25:43.149Z,18.00
2023-05-22T22:28:11.449Z,17.90
2023-05-22T22:30:40.103Z,17.90
2023-05-22T22:33:08.561Z,17.90
2023-05-22T22:35:36.896Z,17.90
2023-05-22T22:38:06.359Z,17.80
2023-05-22T22:40:34.684Z,17.80
2023-05-22T22:43:03.582Z,17.70
2023-05-22T22:45:31.910Z,17.70
2023-05-22T22:48:00.762Z,17.60
2023-05-22T22:50:29.701Z,17.60
2023-05-22T22:52:57.931Z,17.50
2023-05-22T22:55:27.729Z,17.50
2023-05-22T22:57:56.267Z,17.50
2023-05-22T23:00:24.636Z,17.40
2023-05-22T23:02:52.905Z,17.40
2023-05-22T23:05:22.791Z,17.40
2023-05-22T23:07:51.021Z,17.40
2023-05-22T23:10:19.667Z,17.40
2023-05-22T23:12:50.133Z,17.30
2023-05-22T23:15:18.702Z,17.30
2023-05-22T23:17:47.677Z,17.20
2023-05-22T23:20:17.802Z,17.20
2023-05-22T23:22:46.052Z,17.10
2023-05-22T23:25:14.465Z,17.00
2023-05-22T23:27:42.672Z,17.00
2023-05-22T23:30:13.384Z,17.00
2023-05-22T23:32:41.708Z,17.00
2023-05-22T23:35:11.144Z,17.00
2023-05-22T23:37:39.436Z,17.00
2023-05-22T23:40:09.062Z,17.00
2023-05-22T23:42:37.334Z,17.00
2023-05-22T23:45:06.244Z,17.00
2023-05-22T23:47:35.875Z,17.00
2023-05-22T23:50:04.288Z,17.00
2023-05-22T23:52:32.557Z,17.00
2023-05-22T23:55:00.886Z,16.90
2023-05-22T23:57:29.058Z,16.90
2023-05-22T23:59:57.364Z,16.90
